sensor_id;sensor_type;location;lat;lon;timestamp;temperature;humidity
21672;DHT22;10997;52.242;8.168;2024-03-23T00:56:21;6.90;99.90
21672;DHT22;10997;52.242;8.168;2024-03-23T01:01:21;6.80;99.90
21672;DHT22;10997;52.242;8.168;2024-03-23T01:06:22;6.80;99.90
21672;DHT22;10997;52.242;8.168;2024-03-23T01:11:23;6.80;99.90
21672;DHT22;10997;52.242;8.168;2024-03-23T01:16:23;6.80;99.90
21672;DHT22;10997;52.242;8.168;2024-03-23T01:21:24;6.90;99.90
21672;DHT22;10997;52.242;8.168;2024-03-23T01:26:24;6.90;99.90
21672;DHT22;10997;52.242;8.168;2024-03-23T01:31:25;6.90;99.90
21672;DHT22;10997;52.242;8.168;2024-03-23T01:36:26;6.90;99.90
21672;DHT22;10997;52.242;8.168;2024-03-23T01:41:26;6.80;99.90
21672;DHT22;10997;52.242;8.168;2024-03-23T01:46:27;6.70;99.90
21672;DHT22;10997;52.242;8.168;2024-03-23T01:51:29;6.70;99.90
21672;DHT22;10997;52.242;8.168;2024-03-23T01:56:31;6.70;99.90
21672;DHT22;10997;52.242;8.168;2024-03-23T02:01:35;6.70;99.90
21672;DHT22;10997;52.242;8.168;2024-03-23T02:06:39;6.60;99.90
21672;DHT22;10997;52.242;8.168;2024-03-23T02:11:39;6.60;99.90
21672;DHT22;10997;52.242;8.168;2024-03-23T02:16:40;6.60;99.90
21672;DHT22;10997;52.242;8.168;2024-03-23T02:21:41;6.50;99.90
21672;DHT22;10997;52.242;8.168;2024-03-23T02:26:42;6.50;99.90
21672;DHT22;10997;52.242;8.168;2024-03-23T02:31:43;6.40;99.90
21672;DHT22;10997;52.242;8.168;2024-03-23T02:36:43;6.40;99.90
21672;DHT22;10997;52.242;8.168;2024-03-23T02:41:44;6.40;99.90
21672;DHT22;10997;52.242;8.168;2024-03-23T02:46:45;6.50;99.90
21672;DHT22;10997;52.242;8.168;2024-03-23T02:51:45;6.30;99.90
21672;DHT22;10997;52.242;8.168;2024-03-23T02:56:48;6.20;99.90
21672;DHT22;10997;52.242;8.168;2024-03-23T03:01:49;6.20;99.90
21672;DHT22;10997;52.242;8.168;2024-03-23T03:06:50;6.20;99.90
21672;DHT22;10997;52.242;8.168;2024-03-23T03:11:50;6.10;99.90
21672;DHT22;10997;52.242;8.168;2024-03-23T03:16:51;6.10;99.90
21672;DHT22;10997;52.242;8.168;2024-03-23T03:21:51;6.00;99.90
21672;DHT22;10997;52.242;8.168;2024-03-23T03:26:52;6.10;99.90
21672;DHT22;10997;52.242;8.168;2024-03-23T03:31:53;6.10;99.90
21672;DHT22;10997;52.242;8.168;2024-03-23T03:36:53;6.00;99.90
21672;DHT22;10997;52.242;8.168;2024-03-23T03:41:54;6.10;99.90
21672;DHT22;10997;52.242;8.168;2024-03-23T03:46:55;6.00;99.90
21672;DHT22;10997;52.242;8.168;2024-03-23T03:51:55;6.00;99.90
21672;DHT22;10997;52.242;8.168;2024-03-23T03:56:56;6.00;99.90
21672;DHT22;10997;52.242;8.168;2024-03-23T04:01:56;6.00;99.90
21672;DHT22;10997;52.242;8.168;2024-03-23T04:07:01;6.00;99.90
21672;DHT22;10997;52.242;8.168;2024-03-23T04:12:02;6.10;99.90
21672;DHT22;10997;52.242;8.168;2024-03-23T04:17:03;6.10;99.90
21672;DHT22;10997;52.242;8.168;2024-03-23T04:22:03;6.10;99.90
21672;DHT22;10997;52.242;8.168;2024-03-23T04:27:05;6.10;99.90
21672;DHT22;10997;52.242;8.168;2024-03-23T04:32:06;6.10;99.90
21672;DHT22;10997;52.242;8.168;2024-03-23T04:37:07;6.10;99.90
21672;DHT22;10997;52.242;8.168;2024-03-23T04:42:08;6.10;99.90
21672;DHT22;10997;52.242;8.168;2024-03-23T04:47:08;6.00;99.90
21672;DHT22;10997;52.242;8.168;2024-03-23T04:52:09;6.10;99.90
21672;DHT22;10997;52.242;8.168;2024-03-23T04:57:09;6.00;99.90
21672;DHT22;10997;52.242;8.168;2024-03-23T05:02:10;6.00;99.90
21672;DHT22;10997;52.242;8.168;2024-03-23T05:07:11;6.00;99.90
21672;DHT22;10997;52.242;8.168;2024-03-23T05:12:11;6.00;99.90
21672;DHT22;10997;52.242;8.168;2024-03-23T05:17:12;6.00;99.90
21672;DHT22;10997;52.242;8.168;2024-03-23T05:22:13;5.90;99.90
21672;DHT22;10997;52.242;8.168;2024-03-23T05:27:13;5.90;99.90
21672;DHT22;10997;52.242;8.168;2024-03-23T05:32:14;5.90;99.90
21672;DHT22;10997;52.242;8.168;2024-03-23T05:37:14;5.80;99.90
21672;DHT22;10997;52.242;8.168;2024-03-23T05:42:19;5.80;99.90
21672;DHT22;10997;52.242;8.168;2024-03-23T05:47:19;5.80;99.90
21672;DHT22;10997;52.242;8.168;2024-03-23T05:52:20;5.80;99.90
21672;DHT22;10997;52.242;8.168;2024-03-23T05:57:21;5.70;99.90
21672;DHT22;10997;52.242;8.168;2024-03-23T06:02:22;5.80;99.90
21672;DHT22;10997;52.242;8.168;2024-03-23T06:07:23;5.70;99.90
21672;DHT22;10997;52.242;8.168;2024-03-23T06:12:24;5.70;99.90
21672;DHT22;10997;52.242;8.168;2024-03-23T06:17:24;5.60;99.90
21672;DHT22;10997;52.242;8.168;2024-03-23T06:22:25;5.60;99.90
21672;DHT22;10997;52.242;8.168;2024-03-23T06:27:25;5.60;99.90
21672;DHT22;10997;52.242;8.168;2024-03-23T06:32:27;5.60;99.90
21672;DHT22;10997;52.242;8.168;2024-03-23T06:37:29;5.60;99.90
21672;DHT22;10997;52.242;8.168;2024-03-23T06:42:29;5.60;99.90
21672;DHT22;10997;52.242;8.168;2024-03-23T06:47:30;5.60;99.90
21672;DHT22;10997;52.242;8.168;2024-03-23T06:52:31;5.70;99.90
21672;DHT22;10997;52.242;8.168;2024-03-23T06:57:32;5.80;99.90
21672;DHT22;10997;52.242;8.168;2024-03-23T07:02:32;5.90;99.90
21672;DHT22;10997;52.242;8.168;2024-03-23T07:07:33;5.90;99.90
21672;DHT22;10997;52.242;8.168;2024-03-23T07:12:33;6.10;99.90
21672;DHT22;10997;52.242;8.168;2024-03-23T07:17:34;6.20;99.90
21672;DHT22;10997;52.242;8.168;2024-03-23T07:22:35;6.20;99.90
21672;DHT22;10997;52.242;8.168;2024-03-23T07:27:36;6.30;99.90
21672;DHT22;10997;52.242;8.168;2024-03-23T07:32:36;6.40;99.90
21672;DHT22;10997;52.242;8.168;2024-03-23T07:37:37;6.50;99.90
21672;DHT22;10997;52.242;8.168;2024-03-23T07:42:38;6.60;99.90
21672;DHT22;10997;52.242;8.168;2024-03-23T07:47:38;6.70;99.90
21672;DHT22;10997;52.242;8.168;2024-03-23T07:52:39;6.70;99.90
21672;DHT22;10997;52.242;8.168;2024-03-23T07:57:40;6.80;99.90
21672;DHT22;10997;52.242;8.168;2024-03-23T08:02:40;6.90;99.90
21672;DHT22;10997;52.242;8.168;2024-03-23T08:07:41;7.10;99.90
21672;DHT22;10997;52.242;8.168;2024-03-23T08:12:41;7.30;99.90
21672;DHT22;10997;52.242;8.168;2024-03-23T08:17:43;7.40;99.90
21672;DHT22;10997;52.242;8.168;2024-03-23T08:22:43;7.30;99.90
21672;DHT22;10997;52.242;8.168;2024-03-23T08:27:45;7.40;99.90
21672;DHT22;10997;52.242;8.168;2024-03-23T08:32:45;7.50;99.90
21672;DHT22;10997;52.242;8.168;2024-03-23T08:37:46;7.80;99.90
21672;DHT22;10997;52.242;8.168;2024-03-23T08:42:47;7.80;99.90
21672;DHT22;10997;52.242;8.168;2024-03-23T08:47:48;7.70;99.90
21672;DHT22;10997;52.242;8.168;2024-03-23T08:52:50;7.60;99.90
21672;DHT22;10997;52.242;8.168;2024-03-23T08:57:51;7.90;99.90
21672;DHT22;10997;52.242;8.168;2024-03-23T09:02:52;8.00;99.90
21672;DHT22;10997;52.242;8.168;2024-03-23T09:07:54;8.30;99.90
21672;DHT22;10997;52.242;8.168;2024-03-23T09:12:54;8.50;99.90
21672;DHT22;10997;52.242;8.168;2024-03-23T09:17:55;8.20;99.90
21672;DHT22;10997;52.242;8.168;2024-03-23T09:22:56;8.00;99.90
21672;DHT22;10997;52.242;8.168;2024-03-23T09:27:56;8.00;99.90
21672;DHT22;10997;52.242;8.168;2024-03-23T09:32:57;8.20;99.90
21672;DHT22;10997;52.242;8.168;2024-03-23T09:37:57;8.30;99.90
21672;DHT22;10997;52.242;8.168;2024-03-23T09:42:58;8.30;99.90
21672;DHT22;10997;52.242;8.168;2024-03-23T09:47:59;8.20;99.90
21672;DHT22;10997;52.242;8.168;2024-03-23T09:53:00;8.20;99.90
21672;DHT22;10997;52.242;8.168;2024-03-23T09:58:02;8.20;99.90
21672;DHT22;10997;52.242;8.168;2024-03-23T10:03:04;8.50;99.90
21672;DHT22;10997;52.242;8.168;2024-03-23T10:13:26;8.90;99.90
21672;DHT22;10997;52.242;8.168;2024-03-23T10:18:27;8.30;99.90
21672;DHT22;10997;52.242;8.168;2024-03-23T10:23:29;8.00;99.90
21672;DHT22;10997;52.242;8.168;2024-03-23T10:28:29;7.80;99.90
21672;DHT22;10997;52.242;8.168;2024-03-23T10:33:30;7.90;99.90
21672;DHT22;10997;52.242;8.168;2024-03-23T10:38:31;8.20;99.90
21672;DHT22;10997;52.242;8.168;2024-03-23T10:43:33;8.80;99.90
21672;DHT22;10997;52.242;8.168;2024-03-23T10:48:33;8.30;99.90
21672;DHT22;10997;52.242;8.168;2024-03-23T10:53:34;7.30;99.90
21672;DHT22;10997;52.242;8.168;2024-03-23T10:58:44;7.20;99.90
21672;DHT22;10997;52.242;8.168;2024-03-23T11:03:47;7.20;99.90
21672;DHT22;10997;52.242;8.168;2024-03-23T11:08:47;7.90;99.90
21672;DHT22;10997;52.242;8.168;2024-03-23T11:13:52;8.00;99.90
21672;DHT22;10997;52.242;8.168;2024-03-23T11:18:53;7.30;99.90
21672;DHT22;10997;52.242;8.168;2024-03-23T11:23:54;7.30;99.90
21672;DHT22;10997;52.242;8.168;2024-03-23T11:29:11;7.00;99.90
21672;DHT22;10997;52.242;8.168;2024-03-23T11:34:12;6.50;99.90
21672;DHT22;10997;52.242;8.168;2024-03-23T11:39:18;6.10;99.90
21672;DHT22;10997;52.242;8.168;2024-03-23T11:44:25;5.70;99.90
21672;DHT22;10997;52.242;8.168;2024-03-23T11:49:28;5.60;99.90
21672;DHT22;10997;52.242;8.168;2024-03-23T11:54:28;6.00;99.90
21672;DHT22;10997;52.242;8.168;2024-03-23T12:04:38;7.20;99.90
21672;DHT22;10997;52.242;8.168;2024-03-23T12:09:43;7.90;99.90
21672;DHT22;10997;52.242;8.168;2024-03-23T12:14:44;7.60;99.90
21672;DHT22;10997;52.242;8.168;2024-03-23T12:19:46;7.40;99.90
21672;DHT22;10997;52.242;8.168;2024-03-23T12:24:48;7.30;99.90
21672;DHT22;10997;52.242;8.168;2024-03-23T12:29:48;7.20;99.90
21672;DHT22;10997;52.242;8.168;2024-03-23T12:34:49;6.70;99.90
21672;DHT22;10997;52.242;8.168;2024-03-23T12:39:50;6.70;99.90
21672;DHT22;10997;52.242;8.168;2024-03-23T12:44:50;6.30;99.90
21672;DHT22;10997;52.242;8.168;2024-03-23T12:49:51;5.30;99.90
21672;DHT22;10997;52.242;8.168;2024-03-23T12:54:52;4.50;99.90
21672;DHT22;10997;52.242;8.168;2024-03-23T12:59:53;4.50;99.90
21672;DHT22;10997;52.242;8.168;2024-03-23T13:04:54;4.60;99.90
21672;DHT22;10997;52.242;8.168;2024-03-23T13:09:55;4.70;99.90
21672;DHT22;10997;52.242;8.168;2024-03-23T13:14:57;5.10;99.90
21672;DHT22;10997;52.242;8.168;2024-03-23T13:20:01;6.10;99.90
21672;DHT22;10997;52.242;8.168;2024-03-23T13:25:01;6.80;99.90
21672;DHT22;10997;52.242;8.168;2024-03-23T13:30:03;7.20;99.90
21672;DHT22;10997;52.242;8.168;2024-03-23T13:35:04;7.60;99.90
21672;DHT22;10997;52.242;8.168;2024-03-23T13:40:07;7.70;99.90
21672;DHT22;10997;52.242;8.168;2024-03-23T13:45:08;7.40;99.90
21672;DHT22;10997;52.242;8.168;2024-03-23T13:50:12;7.10;99.90
21672;DHT22;10997;52.242;8.168;2024-03-23T13:55:13;7.30;99.90
21672;DHT22;10997;52.242;8.168;2024-03-23T14:00:16;8.00;99.90
21672;DHT22;10997;52.242;8.168;2024-03-23T14:05:18;8.00;99.90
21672;DHT22;10997;52.242;8.168;2024-03-23T14:10:19;8.00;99.90
21672;DHT22;10997;52.242;8.168;2024-03-23T14:15:20;8.50;99.90
21672;DHT22;10997;52.242;8.168;2024-03-23T14:20:21;8.30;99.90
21672;DHT22;10997;52.242;8.168;2024-03-23T14:25:22;7.20;99.90
21672;DHT22;10997;52.242;8.168;2024-03-23T14:30:27;6.70;99.90
21672;DHT22;10997;52.242;8.168;2024-03-23T14:35:28;6.50;99.90
21672;DHT22;10997;52.242;8.168;2024-03-23T14:40:29;7.00;99.90
21672;DHT22;10997;52.242;8.168;2024-03-23T14:45:30;7.50;99.90
21672;DHT22;10997;52.242;8.168;2024-03-23T14:50:30;7.70;99.90
21672;DHT22;10997;52.242;8.168;2024-03-23T14:55:31;7.90;99.90
21672;DHT22;10997;52.242;8.168;2024-03-23T15:00:32;8.10;99.90
21672;DHT22;10997;52.242;8.168;2024-03-23T15:05:32;8.10;99.90
21672;DHT22;10997;52.242;8.168;2024-03-23T15:10:33;8.10;99.90
21672;DHT22;10997;52.242;8.168;2024-03-23T15:15:38;8.10;99.90
21672;DHT22;10997;52.242;8.168;2024-03-23T15:20:41;8.00;99.90
21672;DHT22;10997;52.242;8.168;2024-03-23T15:25:42;7.90;99.90
21672;DHT22;10997;52.242;8.168;2024-03-23T15:30:43;7.90;99.90
21672;DHT22;10997;52.242;8.168;2024-03-23T15:35:43;7.60;99.90
21672;DHT22;10997;52.242;8.168;2024-03-23T15:40:51;7.70;99.90
21672;DHT22;10997;52.242;8.168;2024-03-23T15:45:59;7.60;99.90
21672;DHT22;10997;52.242;8.168;2024-03-23T15:51:01;7.70;99.90
21672;DHT22;10997;52.242;8.168;2024-03-23T15:56:04;7.70;99.90
21672;DHT22;10997;52.242;8.168;2024-03-23T16:01:07;7.60;99.90
21672;DHT22;10997;52.242;8.168;2024-03-23T16:06:09;7.50;99.90
21672;DHT22;10997;52.242;8.168;2024-03-23T16:11:10;7.20;99.90
21672;DHT22;10997;52.242;8.168;2024-03-23T16:16:10;7.10;99.90
21672;DHT22;10997;52.242;8.168;2024-03-23T16:21:11;5.90;99.90
21672;DHT22;10997;52.242;8.168;2024-03-23T16:26:12;5.60;99.90
21672;DHT22;10997;52.242;8.168;2024-03-23T16:31:13;5.50;99.90
21672;DHT22;10997;52.242;8.168;2024-03-23T16:36:13;5.40;99.90
21672;DHT22;10997;52.242;8.168;2024-03-23T16:41:14;5.20;99.90
21672;DHT22;10997;52.242;8.168;2024-03-23T16:46:16;5.20;99.90
21672;DHT22;10997;52.242;8.168;2024-03-23T16:51:16;5.40;99.90
21672;DHT22;10997;52.242;8.168;2024-03-23T16:56:17;5.50;99.90
21672;DHT22;10997;52.242;8.168;2024-03-23T17:01:18;5.60;99.90
21672;DHT22;10997;52.242;8.168;2024-03-23T17:06:19;5.60;99.90
21672;DHT22;10997;52.242;8.168;2024-03-23T17:11:20;5.60;99.90
21672;DHT22;10997;52.242;8.168;2024-03-23T17:16:20;5.60;99.90
21672;DHT22;10997;52.242;8.168;2024-03-23T17:21:22;5.50;99.90
21672;DHT22;10997;52.242;8.168;2024-03-23T17:26:24;5.50;99.90
21672;DHT22;10997;52.242;8.168;2024-03-23T17:31:24;5.40;99.90
21672;DHT22;10997;52.242;8.168;2024-03-23T17:36:25;5.40;99.90
21672;DHT22;10997;52.242;8.168;2024-03-23T17:41:30;5.50;99.90
21672;DHT22;10997;52.242;8.168;2024-03-23T17:46:30;5.50;99.90
21672;DHT22;10997;52.242;8.168;2024-03-23T17:51:31;5.40;99.90
21672;DHT22;10997;52.242;8.168;2024-03-23T17:56:32;5.30;99.90
21672;DHT22;10997;52.242;8.168;2024-03-23T18:01:33;5.30;99.90
21672;DHT22;10997;52.242;8.168;2024-03-23T18:06:33;5.20;99.90
21672;DHT22;10997;52.242;8.168;2024-03-23T18:11:34;5.20;99.90
21672;DHT22;10997;52.242;8.168;2024-03-23T18:16:34;5.20;99.90
21672;DHT22;10997;52.242;8.168;2024-03-23T18:21:35;5.20;99.90
21672;DHT22;10997;52.242;8.168;2024-03-23T18:26:36;5.20;99.90
21672;DHT22;10997;52.242;8.168;2024-03-23T18:31:37;5.30;99.90
21672;DHT22;10997;52.242;8.168;2024-03-23T18:36:37;5.40;99.90
21672;DHT22;10997;52.242;8.168;2024-03-23T18:41:39;5.40;99.90
21672;DHT22;10997;52.242;8.168;2024-03-23T18:46:40;5.50;99.90
21672;DHT22;10997;52.242;8.168;2024-03-23T18:51:40;5.30;99.90
21672;DHT22;10997;52.242;8.168;2024-03-23T18:56:41;5.20;99.90
21672;DHT22;10997;52.242;8.168;2024-03-23T19:01:42;5.10;99.90
21672;DHT22;10997;52.242;8.168;2024-03-23T19:06:42;5.00;99.90
21672;DHT22;10997;52.242;8.168;2024-03-23T19:11:43;4.90;99.90
21672;DHT22;10997;52.242;8.168;2024-03-23T19:16:44;4.80;99.90
21672;DHT22;10997;52.242;8.168;2024-03-23T19:21:44;4.80;99.90
21672;DHT22;10997;52.242;8.168;2024-03-23T19:26:45;4.80;99.90
21672;DHT22;10997;52.242;8.168;2024-03-23T19:31:46;4.80;99.90
21672;DHT22;10997;52.242;8.168;2024-03-23T19:36:47;4.70;99.90
21672;DHT22;10997;52.242;8.168;2024-03-23T19:41:47;4.70;99.90
21672;DHT22;10997;52.242;8.168;2024-03-23T19:46:48;4.70;99.90
21672;DHT22;10997;52.242;8.168;2024-03-23T19:51:49;4.80;99.90
21672;DHT22;10997;52.242;8.168;2024-03-23T19:56:50;4.80;99.90
21672;DHT22;10997;52.242;8.168;2024-03-23T20:01:50;4.70;99.90
21672;DHT22;10997;52.242;8.168;2024-03-23T20:06:51;4.70;99.90
21672;DHT22;10997;52.242;8.168;2024-03-23T20:11:52;4.60;99.90
21672;DHT22;10997;52.242;8.168;2024-03-23T20:16:52;4.60;99.90
21672;DHT22;10997;52.242;8.168;2024-03-23T20:21:53;4.60;99.90
21672;DHT22;10997;52.242;8.168;2024-03-23T20:26:54;4.70;99.90
21672;DHT22;10997;52.242;8.168;2024-03-23T20:31:55;4.60;99.90
21672;DHT22;10997;52.242;8.168;2024-03-23T20:36:55;4.50;99.90
21672;DHT22;10997;52.242;8.168;2024-03-23T20:41:57;4.40;99.90
21672;DHT22;10997;52.242;8.168;2024-03-23T20:46:58;4.40;99.90
21672;DHT22;10997;52.242;8.168;2024-03-23T20:51:58;4.30;99.90
21672;DHT22;10997;52.242;8.168;2024-03-23T20:56:59;4.30;99.90
21672;DHT22;10997;52.242;8.168;2024-03-23T21:02:00;4.20;99.90
21672;DHT22;10997;52.242;8.168;2024-03-23T21:07:00;4.30;99.90
21672;DHT22;10997;52.242;8.168;2024-03-23T21:12:01;4.20;99.90
21672;DHT22;10997;52.242;8.168;2024-03-23T21:17:02;4.20;99.90
21672;DHT22;10997;52.242;8.168;2024-03-23T21:22:03;4.20;99.90
21672;DHT22;10997;52.242;8.168;2024-03-23T21:27:04;4.20;99.90
21672;DHT22;10997;52.242;8.168;2024-03-23T21:32:05;4.10;99.90
21672;DHT22;10997;52.242;8.168;2024-03-23T21:37:06;4.10;99.90
21672;DHT22;10997;52.242;8.168;2024-03-23T21:42:06;4.00;99.90
21672;DHT22;10997;52.242;8.168;2024-03-23T21:47:07;4.00;99.90
21672;DHT22;10997;52.242;8.168;2024-03-23T21:52:08;3.90;99.90
21672;DHT22;10997;52.242;8.168;2024-03-23T21:57:08;3.90;99.90
21672;DHT22;10997;52.242;8.168;2024-03-23T22:02:10;3.90;99.90
21672;DHT22;10997;52.242;8.168;2024-03-23T22:07:10;3.90;99.90
21672;DHT22;10997;52.242;8.168;2024-03-23T22:12:11;4.00;99.90
21672;DHT22;10997;52.242;8.168;2024-03-23T22:17:11;3.90;99.90
21672;DHT22;10997;52.242;8.168;2024-03-23T22:22:12;3.90;99.90
21672;DHT22;10997;52.242;8.168;2024-03-23T22:27:14;3.90;99.90
21672;DHT22;10997;52.242;8.168;2024-03-23T22:32:15;3.90;99.90
21672;DHT22;10997;52.242;8.168;2024-03-23T22:37:16;3.90;99.90
21672;DHT22;10997;52.242;8.168;2024-03-23T22:42:16;4.00;99.90
21672;DHT22;10997;52.242;8.168;2024-03-23T22:47:17;4.00;99.90
21672;DHT22;10997;52.242;8.168;2024-03-23T22:52:18;4.00;99.90
21672;DHT22;10997;52.242;8.168;2024-03-23T22:57:19;4.00;99.90
21672;DHT22;10997;52.242;8.168;2024-03-23T23:02:19;4.00;99.90
21672;DHT22;10997;52.242;8.168;2024-03-23T23:07:21;4.10;99.90
21672;DHT22;10997;52.242;8.168;2024-03-23T23:12:22;4.00;99.90
21672;DHT22;10997;52.242;8.168;2024-03-23T23:17:23;4.10;99.90
21672;DHT22;10997;52.242;8.168;2024-03-23T23:22:23;4.00;99.90
21672;DHT22;10997;52.242;8.168;2024-03-23T23:27:24;4.00;99.90
21672;DHT22;10997;52.242;8.168;2024-03-23T23:32:25;3.90;99.90
21672;DHT22;10997;52.242;8.168;2024-03-23T23:37:26;3.90;99.90
21672;DHT22;10997;52.242;8.168;2024-03-23T23:42:27;3.80;99.90
21672;DHT22;10997;52.242;8.168;2024-03-23T23:47:28;3.80;99.90
21672;DHT22;10997;52.242;8.168;2024-03-23T23:52:28;3.70;99.90
21672;DHT22;10997;52.242;8.168;2024-03-23T23:57:29;3.70;99.90
